sensor_id;sensor_type;location;lat;lon;timestamp;temperature;humidity
54409;DHT22;40315;48.620;9.828;2024-01-15T02:03:18;-3.70;99.90
54409;DHT22;40315;48.620;9.828;2024-01-15T02:05:48;-3.70;99.90
54409;DHT22;40315;48.620;9.828;2024-01-15T02:08:15;-3.70;99.90
54409;DHT22;40315;48.620;9.828;2024-01-15T02:10:42;-2.60;99.90
54409;DHT22;40315;48.620;9.828;2024-01-15T02:13:09;-3.70;99.90
54409;DHT22;40315;48.620;9.828;2024-01-15T02:15:36;-3.60;99.90
54409;DHT22;40315;48.620;9.828;2024-01-15T02:18:05;-3.60;99.90
54409;DHT22;40315;48.620;9.828;2024-01-15T02:20:34;-3.50;99.90
54409;DHT22;40315;48.620;9.828;2024-01-15T02:23:08;-3.50;99.90
54409;DHT22;40315;48.620;9.828;2024-01-15T02:25:36;-3.40;99.90
54409;DHT22;40315;48.620;9.828;2024-01-15T02:28:04;-3.50;99.90
54409;DHT22;40315;48.620;9.828;2024-01-15T02:30:32;-3.40;99.90
54409;DHT22;40315;48.620;9.828;2024-01-15T02:32:59;-3.40;99.90
54409;DHT22;40315;48.620;9.828;2024-01-15T02:35:26;-3.40;99.90
54409;DHT22;40315;48.620;9.828;2024-01-15T02:37:53;-3.40;99.90
54409;DHT22;40315;48.620;9.828;2024-01-15T02:40:21;-3.40;99.90
54409;DHT22;40315;48.620;9.828;2024-01-15T02:42:48;-3.40;99.90
54409;DHT22;40315;48.620;9.828;2024-01-15T02:45:15;-3.40;99.90
54409;DHT22;40315;48.620;9.828;2024-01-15T02:47:44;-3.40;99.90
54409;DHT22;40315;48.620;9.828;2024-01-15T02:50:10;-3.40;99.90
54409;DHT22;40315;48.620;9.828;2024-01-15T02:52:40;-3.40;99.90
54409;DHT22;40315;48.620;9.828;2024-01-15T02:55:08;-3.40;99.90
54409;DHT22;40315;48.620;9.828;2024-01-15T02:57:36;-3.30;99.90
54409;DHT22;40315;48.620;9.828;2024-01-15T03:00:04;-3.30;99.90
54409;DHT22;40315;48.620;9.828;2024-01-15T03:02:37;-3.30;99.90
54409;DHT22;40315;48.620;9.828;2024-01-15T03:05:05;-3.20;99.90
54409;DHT22;40315;48.620;9.828;2024-01-15T03:07:33;-3.30;99.90
54409;DHT22;40315;48.620;9.828;2024-01-15T03:10:00;-3.20;99.90
54409;DHT22;40315;48.620;9.828;2024-01-15T03:12:27;-3.10;99.90
54409;DHT22;40315;48.620;9.828;2024-01-15T03:14:58;-3.10;99.90
54409;DHT22;40315;48.620;9.828;2024-01-15T03:17:24;-3.00;99.90
54409;DHT22;40315;48.620;9.828;2024-01-15T03:19:51;-2.90;99.90
54409;DHT22;40315;48.620;9.828;2024-01-15T03:22:18;-2.80;99.90
54409;DHT22;40315;48.620;9.828;2024-01-15T03:24:48;-2.70;99.90
54409;DHT22;40315;48.620;9.828;2024-01-15T03:27:15;-2.70;99.90
54409;DHT22;40315;48.620;9.828;2024-01-15T03:29:42;-2.70;99.90
54409;DHT22;40315;48.620;9.828;2024-01-15T03:32:10;-2.60;99.90
54409;DHT22;40315;48.620;9.828;2024-01-15T03:34:37;-2.40;99.90
54409;DHT22;40315;48.620;9.828;2024-01-15T03:37:04;-2.30;99.90
54409;DHT22;40315;48.620;9.828;2024-01-15T03:39:31;-2.20;99.90
54409;DHT22;40315;48.620;9.828;2024-01-15T03:41:58;-2.20;99.90
54409;DHT22;40315;48.620;9.828;2024-01-15T03:44:25;-2.10;99.90
54409;DHT22;40315;48.620;9.828;2024-01-15T03:46:54;-2.00;99.90
54409;DHT22;40315;48.620;9.828;2024-01-15T03:49:22;-1.90;99.90
54409;DHT22;40315;48.620;9.828;2024-01-15T03:51:51;-1.90;99.90
54409;DHT22;40315;48.620;9.828;2024-01-15T03:54:18;-1.80;99.90
54409;DHT22;40315;48.620;9.828;2024-01-15T03:56:45;-1.70;99.90
54409;DHT22;40315;48.620;9.828;2024-01-15T03:59:12;-1.70;99.90
54409;DHT22;40315;48.620;9.828;2024-01-15T04:01:39;-1.70;99.90
54409;DHT22;40315;48.620;9.828;2024-01-15T04:04:06;-1.60;99.90
54409;DHT22;40315;48.620;9.828;2024-01-15T04:06:34;-1.50;99.90
54409;DHT22;40315;48.620;9.828;2024-01-15T04:09:01;-1.50;99.90
54409;DHT22;40315;48.620;9.828;2024-01-15T04:11:28;-1.50;99.90
54409;DHT22;40315;48.620;9.828;2024-01-15T04:13:57;-1.40;99.90
54409;DHT22;40315;48.620;9.828;2024-01-15T04:16:24;-1.40;99.90
54409;DHT22;40315;48.620;9.828;2024-01-15T04:18:51;-1.40;99.90
54409;DHT22;40315;48.620;9.828;2024-01-15T04:21:18;-1.30;99.90
54409;DHT22;40315;48.620;9.828;2024-01-15T04:23:46;-1.30;99.90
54409;DHT22;40315;48.620;9.828;2024-01-15T04:26:13;-1.30;99.90
54409;DHT22;40315;48.620;9.828;2024-01-15T04:28:40;-1.20;99.90
54409;DHT22;40315;48.620;9.828;2024-01-15T04:31:09;-1.20;99.90
54409;DHT22;40315;48.620;9.828;2024-01-15T04:33:36;-1.20;99.90
54409;DHT22;40315;48.620;9.828;2024-01-15T04:36:04;-1.20;99.90
54409;DHT22;40315;48.620;9.828;2024-01-15T04:38:31;-1.10;99.90
54409;DHT22;40315;48.620;9.828;2024-01-15T04:41:03;-1.00;99.90
54409;DHT22;40315;48.620;9.828;2024-01-15T04:43:30;-1.80;99.90
54409;DHT22;40315;48.620;9.828;2024-01-15T04:45:56;-0.80;99.90
54409;DHT22;40315;48.620;9.828;2024-01-15T04:48:23;-0.90;99.90
54409;DHT22;40315;48.620;9.828;2024-01-15T04:50:50;-0.90;99.90
54409;DHT22;40315;48.620;9.828;2024-01-15T04:53:19;-0.90;99.90
54409;DHT22;40315;48.620;9.828;2024-01-15T04:55:48;-0.80;99.90
54409;DHT22;40315;48.620;9.828;2024-01-15T04:58:19;-0.70;99.90
54409;DHT22;40315;48.620;9.828;2024-01-15T05:00:46;-0.70;99.90
54409;DHT22;40315;48.620;9.828;2024-01-15T05:03:13;-0.70;99.90
54409;DHT22;40315;48.620;9.828;2024-01-15T05:05:42;-0.70;99.90
54409;DHT22;40315;48.620;9.828;2024-01-15T05:08:09;-0.60;99.90
54409;DHT22;40315;48.620;9.828;2024-01-15T05:10:37;-0.60;99.90
54409;DHT22;40315;48.620;9.828;2024-01-15T05:13:04;-0.60;99.90
54409;DHT22;40315;48.620;9.828;2024-01-15T05:15:32;-0.60;99.90
54409;DHT22;40315;48.620;9.828;2024-01-15T05:17:59;-0.60;99.90
54409;DHT22;40315;48.620;9.828;2024-01-15T05:20:28;-0.50;99.90
54409;DHT22;40315;48.620;9.828;2024-01-15T05:22:55;-0.50;99.90
54409;DHT22;40315;48.620;9.828;2024-01-15T05:25:22;-0.50;99.90
54409;DHT22;40315;48.620;9.828;2024-01-15T05:27:49;-0.50;99.90
54409;DHT22;40315;48.620;9.828;2024-01-15T05:30:16;-0.50;99.90
54409;DHT22;40315;48.620;9.828;2024-01-15T05:32:47;-0.60;99.90
54409;DHT22;40315;48.620;9.828;2024-01-15T05:35:17;-0.50;99.90
54409;DHT22;40315;48.620;9.828;2024-01-15T05:37:46;-0.50;99.90
54409;DHT22;40315;48.620;9.828;2024-01-15T05:40:13;-0.50;99.90
54409;DHT22;40315;48.620;9.828;2024-01-15T05:42:41;-0.50;99.90
54409;DHT22;40315;48.620;9.828;2024-01-15T05:45:08;-0.50;99.90
54409;DHT22;40315;48.620;9.828;2024-01-15T05:47:37;-0.50;99.90
54409;DHT22;40315;48.620;9.828;2024-01-15T05:50:08;-0.50;99.90
54409;DHT22;40315;48.620;9.828;2024-01-15T05:52:35;-0.60;99.90
54409;DHT22;40315;48.620;9.828;2024-01-15T05:55:04;-0.50;99.90
54409;DHT22;40315;48.620;9.828;2024-01-15T05:57:33;-0.50;99.90
54409;DHT22;40315;48.620;9.828;2024-01-15T06:00:00;-0.50;99.90
54409;DHT22;40315;48.620;9.828;2024-01-15T06:02:31;-0.60;99.90
54409;DHT22;40315;48.620;9.828;2024-01-15T06:04:58;-0.60;99.90
54409;DHT22;40315;48.620;9.828;2024-01-15T06:07:27;-0.60;99.90
54409;DHT22;40315;48.620;9.828;2024-01-15T06:09:53;-0.20;99.90
54409;DHT22;40315;48.620;9.828;2024-01-15T06:12:22;-0.50;99.90
54409;DHT22;40315;48.620;9.828;2024-01-15T06:14:49;-0.50;99.90
54409;DHT22;40315;48.620;9.828;2024-01-15T06:17:19;-0.50;99.90
54409;DHT22;40315;48.620;9.828;2024-01-15T06:19:46;-0.50;99.90
54409;DHT22;40315;48.620;9.828;2024-01-15T06:22:12;-0.50;99.90
54409;DHT22;40315;48.620;9.828;2024-01-15T06:24:41;-0.50;99.90
54409;DHT22;40315;48.620;9.828;2024-01-15T06:27:10;-0.60;99.90
54409;DHT22;40315;48.620;9.828;2024-01-15T06:29:38;-0.60;99.90
54409;DHT22;40315;48.620;9.828;2024-01-15T06:32:05;-0.70;99.90
54409;DHT22;40315;48.620;9.828;2024-01-15T06:34:32;-0.60;99.90
54409;DHT22;40315;48.620;9.828;2024-01-15T06:36:59;-0.60;99.90
54409;DHT22;40315;48.620;9.828;2024-01-15T06:39:26;-0.70;99.90
54409;DHT22;40315;48.620;9.828;2024-01-15T06:41:56;-0.60;99.90
54409;DHT22;40315;48.620;9.828;2024-01-15T06:44:23;-0.70;99.90
54409;DHT22;40315;48.620;9.828;2024-01-15T06:46:52;-0.70;99.90
54409;DHT22;40315;48.620;9.828;2024-01-15T06:49:22;-0.60;99.90
54409;DHT22;40315;48.620;9.828;2024-01-15T06:51:52;-0.60;99.90
54409;DHT22;40315;48.620;9.828;2024-01-15T06:54:19;-0.60;99.90
54409;DHT22;40315;48.620;9.828;2024-01-15T06:56:46;-0.60;99.90
54409;DHT22;40315;48.620;9.828;2024-01-15T06:59:16;-0.60;99.90
54409;DHT22;40315;48.620;9.828;2024-01-15T07:01:43;-0.50;99.90
54409;DHT22;40315;48.620;9.828;2024-01-15T07:04:10;-0.60;99.90
54409;DHT22;40315;48.620;9.828;2024-01-15T07:06:37;-0.50;99.90
54409;DHT22;40315;48.620;9.828;2024-01-15T07:09:05;-0.30;99.90
54409;DHT22;40315;48.620;9.828;2024-01-15T07:11:33;-0.50;99.90
54409;DHT22;40315;48.620;9.828;2024-01-15T07:14:00;-0.50;99.90
54409;DHT22;40315;48.620;9.828;2024-01-15T07:16:31;-0.50;99.90
54409;DHT22;40315;48.620;9.828;2024-01-15T07:19:00;-0.50;99.90
54409;DHT22;40315;48.620;9.828;2024-01-15T07:21:29;-0.50;99.90
54409;DHT22;40315;48.620;9.828;2024-01-15T07:23:56;-0.50;99.90
54409;DHT22;40315;48.620;9.828;2024-01-15T07:26:23;-0.60;99.90
54409;DHT22;40315;48.620;9.828;2024-01-15T07:28:50;-0.50;99.90
54409;DHT22;40315;48.620;9.828;2024-01-15T07:31:17;-0.50;99.90
54409;DHT22;40315;48.620;9.828;2024-01-15T07:33:46;-0.50;99.90
54409;DHT22;40315;48.620;9.828;2024-01-15T07:36:13;-0.50;99.90
54409;DHT22;40315;48.620;9.828;2024-01-15T07:38:40;-0.40;99.90
54409;DHT22;40315;48.620;9.828;2024-01-15T07:41:09;-0.40;99.90
54409;DHT22;40315;48.620;9.828;2024-01-15T07:43:36;-0.40;99.90
54409;DHT22;40315;48.620;9.828;2024-01-15T07:46:03;-0.40;99.90
54409;DHT22;40315;48.620;9.828;2024-01-15T07:48:30;-0.40;99.90
54409;DHT22;40315;48.620;9.828;2024-01-15T07:50:58;-0.40;99.90
54409;DHT22;40315;48.620;9.828;2024-01-15T07:53:25;-0.40;99.90
54409;DHT22;40315;48.620;9.828;2024-01-15T07:55:53;-0.40;99.90
54409;DHT22;40315;48.620;9.828;2024-01-15T07:58:20;-0.30;99.90
54409;DHT22;40315;48.620;9.828;2024-01-15T08:00:49;-0.30;99.90
54409;DHT22;40315;48.620;9.828;2024-01-15T08:03:17;-0.30;99.90
54409;DHT22;40315;48.620;9.828;2024-01-15T08:05:44;-0.30;99.90
54409;DHT22;40315;48.620;9.828;2024-01-15T08:08:13;-0.30;99.90
54409;DHT22;40315;48.620;9.828;2024-01-15T08:10:40;-0.20;99.90
54409;DHT22;40315;48.620;9.828;2024-01-15T08:13:07;-0.20;99.90
54409;DHT22;40315;48.620;9.828;2024-01-15T08:15:35;-0.20;99.90
54409;DHT22;40315;48.620;9.828;2024-01-15T08:18:04;-0.20;99.90
54409;DHT22;40315;48.620;9.828;2024-01-15T08:20:31;-0.20;99.90
54409;DHT22;40315;48.620;9.828;2024-01-15T08:22:58;-0.10;99.90
54409;DHT22;40315;48.620;9.828;2024-01-15T08:25:26;0.00;99.90
54409;DHT22;40315;48.620;9.828;2024-01-15T08:27:53;0.00;99.90
54409;DHT22;40315;48.620;9.828;2024-01-15T08:30:20;0.00;99.90
54409;DHT22;40315;48.620;9.828;2024-01-15T08:32:50;0.00;99.90
54409;DHT22;40315;48.620;9.828;2024-01-15T08:35:17;0.00;99.90
54409;DHT22;40315;48.620;9.828;2024-01-15T08:37:48;0.00;99.90
54409;DHT22;40315;48.620;9.828;2024-01-15T08:40:18;0.00;99.90
54409;DHT22;40315;48.620;9.828;2024-01-15T08:42:46;0.00;99.90
54409;DHT22;40315;48.620;9.828;2024-01-15T08:45:13;0.00;99.90
54409;DHT22;40315;48.620;9.828;2024-01-15T08:47:40;0.00;99.90
54409;DHT22;40315;48.620;9.828;2024-01-15T08:50:07;0.00;99.90
54409;DHT22;40315;48.620;9.828;2024-01-15T08:52:36;0.10;99.90
54409;DHT22;40315;48.620;9.828;2024-01-15T08:55:03;0.10;99.90
54409;DHT22;40315;48.620;9.828;2024-01-15T08:57:32;0.00;99.90
54409;DHT22;40315;48.620;9.828;2024-01-15T09:00:01;-0.10;99.90
54409;DHT22;40315;48.620;9.828;2024-01-15T09:02:29;0.10;99.90
54409;DHT22;40315;48.620;9.828;2024-01-15T09:04:58;0.00;99.90
54409;DHT22;40315;48.620;9.828;2024-01-15T09:07:25;0.00;99.90
54409;DHT22;40315;48.620;9.828;2024-01-15T09:09:52;0.00;99.90
54409;DHT22;40315;48.620;9.828;2024-01-15T09:12:19;0.00;99.90
54409;DHT22;40315;48.620;9.828;2024-01-15T09:14:50;0.10;99.90
54409;DHT22;40315;48.620;9.828;2024-01-15T09:17:19;0.00;99.90
54409;DHT22;40315;48.620;9.828;2024-01-15T09:19:46;0.00;99.90
54409;DHT22;40315;48.620;9.828;2024-01-15T09:22:13;0.00;99.90
54409;DHT22;40315;48.620;9.828;2024-01-15T09:24:40;0.00;99.90
54409;DHT22;40315;48.620;9.828;2024-01-15T09:27:07;0.10;99.90
54409;DHT22;40315;48.620;9.828;2024-01-15T09:29:34;0.20;99.90
54409;DHT22;40315;48.620;9.828;2024-01-15T09:32:05;0.20;99.90
54409;DHT22;40315;48.620;9.828;2024-01-15T09:34:34;0.20;99.90
54409;DHT22;40315;48.620;9.828;2024-01-15T09:37:04;0.20;99.90
54409;DHT22;40315;48.620;9.828;2024-01-15T09:39:31;0.30;99.90
54409;DHT22;40315;48.620;9.828;2024-01-15T09:41:58;0.30;99.90
54409;DHT22;40315;48.620;9.828;2024-01-15T09:44:25;0.30;99.90
54409;DHT22;40315;48.620;9.828;2024-01-15T09:46:55;0.30;99.90
54409;DHT22;40315;48.620;9.828;2024-01-15T09:49:22;0.40;99.90
54409;DHT22;40315;48.620;9.828;2024-01-15T09:51:51;0.50;99.90
54409;DHT22;40315;48.620;9.828;2024-01-15T09:54:18;0.50;99.90
54409;DHT22;40315;48.620;9.828;2024-01-15T09:56:45;0.50;99.90
54409;DHT22;40315;48.620;9.828;2024-01-15T09:59:15;0.60;99.90
54409;DHT22;40315;48.620;9.828;2024-01-15T10:01:43;0.70;99.90
54409;DHT22;40315;48.620;9.828;2024-01-15T10:04:10;0.70;99.90
54409;DHT22;40315;48.620;9.828;2024-01-15T10:06:38;0.70;99.90
54409;DHT22;40315;48.620;9.828;2024-01-15T10:09:07;0.80;99.90
54409;DHT22;40315;48.620;9.828;2024-01-15T10:11:36;0.80;99.90
54409;DHT22;40315;48.620;9.828;2024-01-15T10:14:04;0.80;99.90
54409;DHT22;40315;48.620;9.828;2024-01-15T10:16:34;0.90;99.90
54409;DHT22;40315;48.620;9.828;2024-01-15T10:19:00;0.80;99.90
54409;DHT22;40315;48.620;9.828;2024-01-15T10:21:32;0.80;99.90
54409;DHT22;40315;48.620;9.828;2024-01-15T10:24:03;0.90;99.90
54409;DHT22;40315;48.620;9.828;2024-01-15T10:26:32;0.90;99.90
54409;DHT22;40315;48.620;9.828;2024-01-15T10:29:01;1.00;99.90
54409;DHT22;40315;48.620;9.828;2024-01-15T10:31:28;1.00;99.90
54409;DHT22;40315;48.620;9.828;2024-01-15T10:34:10;1.00;99.90
54409;DHT22;40315;48.620;9.828;2024-01-15T10:36:39;1.00;99.90
54409;DHT22;40315;48.620;9.828;2024-01-15T10:39:06;1.10;99.90
54409;DHT22;40315;48.620;9.828;2024-01-15T10:41:38;1.00;99.90
54409;DHT22;40315;48.620;9.828;2024-01-15T10:44:05;1.10;99.90
54409;DHT22;40315;48.620;9.828;2024-01-15T10:46:32;1.10;99.90
54409;DHT22;40315;48.620;9.828;2024-01-15T10:49:01;1.10;99.90
54409;DHT22;40315;48.620;9.828;2024-01-15T10:51:28;1.10;99.90
54409;DHT22;40315;48.620;9.828;2024-01-15T10:53:56;1.00;99.90
54409;DHT22;40315;48.620;9.828;2024-01-15T10:56:24;1.00;99.90
54409;DHT22;40315;48.620;9.828;2024-01-15T10:58:54;1.00;99.90
54409;DHT22;40315;48.620;9.828;2024-01-15T11:01:22;1.00;99.90
54409;DHT22;40315;48.620;9.828;2024-01-15T11:03:51;1.00;99.90
54409;DHT22;40315;48.620;9.828;2024-01-15T11:06:19;1.00;99.90
54409;DHT22;40315;48.620;9.828;2024-01-15T11:08:49;1.10;99.90
54409;DHT22;40315;48.620;9.828;2024-01-15T11:11:19;1.10;99.90
54409;DHT22;40315;48.620;9.828;2024-01-15T11:13:50;1.10;99.90
54409;DHT22;40315;48.620;9.828;2024-01-15T11:16:21;1.10;99.90
54409;DHT22;40315;48.620;9.828;2024-01-15T11:19:05;1.10;99.90
54409;DHT22;40315;48.620;9.828;2024-01-15T11:21:42;1.10;99.90
54409;DHT22;40315;48.620;9.828;2024-01-15T11:24:10;1.10;99.90
54409;DHT22;40315;48.620;9.828;2024-01-15T11:26:43;1.10;99.90
54409;DHT22;40315;48.620;9.828;2024-01-15T11:29:30;1.10;99.90
54409;DHT22;40315;48.620;9.828;2024-01-15T11:32:08;1.20;99.90
54409;DHT22;40315;48.620;9.828;2024-01-15T11:34:58;1.10;99.90
54409;DHT22;40315;48.620;9.828;2024-01-15T11:37:28;1.20;99.90
54409;DHT22;40315;48.620;9.828;2024-01-15T11:39:59;1.20;99.90
54409;DHT22;40315;48.620;9.828;2024-01-15T11:42:28;1.20;99.90
54409;DHT22;40315;48.620;9.828;2024-01-15T11:44:58;1.10;99.90
54409;DHT22;40315;48.620;9.828;2024-01-15T11:50:40;1.20;99.90
54409;DHT22;40315;48.620;9.828;2024-01-15T11:53:16;1.20;99.90
54409;DHT22;40315;48.620;9.828;2024-01-15T11:55:45;1.20;99.90
54409;DHT22;40315;48.620;9.828;2024-01-15T11:58:14;1.10;99.90
54409;DHT22;40315;48.620;9.828;2024-01-15T12:00:44;1.00;99.90
54409;DHT22;40315;48.620;9.828;2024-01-15T12:03:12;1.00;99.90
54409;DHT22;40315;48.620;9.828;2024-01-15T12:05:40;0.90;99.90
54409;DHT22;40315;48.620;9.828;2024-01-15T12:08:08;0.80;99.90
54409;DHT22;40315;48.620;9.828;2024-01-15T12:10:36;0.80;99.90
54409;DHT22;40315;48.620;9.828;2024-01-15T12:13:10;0.80;99.90
54409;DHT22;40315;48.620;9.828;2024-01-15T12:15:37;0.80;99.90
54409;DHT22;40315;48.620;9.828;2024-01-15T12:18:07;0.90;99.90
54409;DHT22;40315;48.620;9.828;2024-01-15T12:20:39;0.80;99.90
54409;DHT22;40315;48.620;9.828;2024-01-15T12:23:06;0.80;99.90
54409;DHT22;40315;48.620;9.828;2024-01-15T12:25:33;0.80;99.90
54409;DHT22;40315;48.620;9.828;2024-01-15T12:28:01;0.70;99.90
54409;DHT22;40315;48.620;9.828;2024-01-15T12:30:28;0.70;99.90
54409;DHT22;40315;48.620;9.828;2024-01-15T12:32:57;0.70;99.90
54409;DHT22;40315;48.620;9.828;2024-01-15T12:35:26;0.70;99.90
54409;DHT22;40315;48.620;9.828;2024-01-15T12:37:54;0.70;99.90
54409;DHT22;40315;48.620;9.828;2024-01-15T12:40:22;0.70;99.90
54409;DHT22;40315;48.620;9.828;2024-01-15T12:42:50;0.80;99.90
54409;DHT22;40315;48.620;9.828;2024-01-15T12:45:18;0.20;99.90
54409;DHT22;40315;48.620;9.828;2024-01-15T12:47:45;0.80;99.90
54409;DHT22;40315;48.620;9.828;2024-01-15T12:50:13;0.80;99.90
54409;DHT22;40315;48.620;9.828;2024-01-15T12:52:40;0.90;99.90
54409;DHT22;40315;48.620;9.828;2024-01-15T12:55:09;0.80;99.90
54409;DHT22;40315;48.620;9.828;2024-01-15T12:57:39;0.90;99.90
54409;DHT22;40315;48.620;9.828;2024-01-15T13:00:06;0.80;99.90
54409;DHT22;40315;48.620;9.828;2024-01-15T13:02:39;0.80;99.90
54409;DHT22;40315;48.620;9.828;2024-01-15T13:05:08;0.80;99.90
54409;DHT22;40315;48.620;9.828;2024-01-15T13:07:36;0.80;99.90
54409;DHT22;40315;48.620;9.828;2024-01-15T13:10:04;0.90;99.90
54409;DHT22;40315;48.620;9.828;2024-01-15T13:12:35;0.80;99.90
54409;DHT22;40315;48.620;9.828;2024-01-15T13:15:04;0.80;99.90
54409;DHT22;40315;48.620;9.828;2024-01-15T13:17:34;0.60;99.90
54409;DHT22;40315;48.620;9.828;2024-01-15T13:20:01;0.80;99.90
54409;DHT22;40315;48.620;9.828;2024-01-15T13:22:28;0.80;99.90
54409;DHT22;40315;48.620;9.828;2024-01-15T13:24:58;0.60;99.90
54409;DHT22;40315;48.620;9.828;2024-01-15T13:27:27;0.60;99.90
54409;DHT22;40315;48.620;9.828;2024-01-15T13:29:58;0.50;99.90
54409;DHT22;40315;48.620;9.828;2024-01-15T13:32:28;0.50;99.90
54409;DHT22;40315;48.620;9.828;2024-01-15T13:34:56;0.50;99.90
54409;DHT22;40315;48.620;9.828;2024-01-15T13:37:23;0.60;99.90
54409;DHT22;40315;48.620;9.828;2024-01-15T13:39:52;0.80;99.90
54409;DHT22;40315;48.620;9.828;2024-01-15T13:42:21;0.60;99.90
54409;DHT22;40315;48.620;9.828;2024-01-15T13:44:48;0.60;99.90
54409;DHT22;40315;48.620;9.828;2024-01-15T13:47:20;0.70;99.90
54409;DHT22;40315;48.620;9.828;2024-01-15T13:49:47;0.70;99.90
54409;DHT22;40315;48.620;9.828;2024-01-15T13:52:14;1.80;99.90
54409;DHT22;40315;48.620;9.828;2024-01-15T13:54:43;1.40;99.90
54409;DHT22;40315;48.620;9.828;2024-01-15T13:57:10;0.70;99.90
54409;DHT22;40315;48.620;9.828;2024-01-15T13:59:39;0.70;99.90
54409;DHT22;40315;48.620;9.828;2024-01-15T14:02:06;0.70;99.90
54409;DHT22;40315;48.620;9.828;2024-01-15T14:04:34;0.70;99.90
54409;DHT22;40315;48.620;9.828;2024-01-15T14:07:01;-1.10;99.90
54409;DHT22;40315;48.620;9.828;2024-01-15T14:09:28;2.50;99.90
54409;DHT22;40315;48.620;9.828;2024-01-15T14:11:59;0.60;99.90
54409;DHT22;40315;48.620;9.828;2024-01-15T14:14:26;0.60;99.90
54409;DHT22;40315;48.620;9.828;2024-01-15T14:16:55;0.60;99.90
54409;DHT22;40315;48.620;9.828;2024-01-15T14:19:22;0.60;99.90
54409;DHT22;40315;48.620;9.828;2024-01-15T14:21:51;0.50;99.90
54409;DHT22;40315;48.620;9.828;2024-01-15T14:24:18;0.50;99.90
54409;DHT22;40315;48.620;9.828;2024-01-15T14:26:45;1.10;99.90
54409;DHT22;40315;48.620;9.828;2024-01-15T14:29:12;0.50;99.90
54409;DHT22;40315;48.620;9.828;2024-01-15T14:31:39;0.40;99.90
54409;DHT22;40315;48.620;9.828;2024-01-15T14:34:06;0.40;99.90
54409;DHT22;40315;48.620;9.828;2024-01-15T14:36:35;0.30;99.90
54409;DHT22;40315;48.620;9.828;2024-01-15T14:39:04;0.30;99.90
54409;DHT22;40315;48.620;9.828;2024-01-15T14:41:30;0.20;99.90
54409;DHT22;40315;48.620;9.828;2024-01-15T14:44:00;0.20;99.90
54409;DHT22;40315;48.620;9.828;2024-01-15T14:46:27;0.20;99.90
54409;DHT22;40315;48.620;9.828;2024-01-15T14:48:55;0.10;99.90
54409;DHT22;40315;48.620;9.828;2024-01-15T14:51:22;0.10;99.90
54409;DHT22;40315;48.620;9.828;2024-01-15T14:53:49;0.10;99.90
54409;DHT22;40315;48.620;9.828;2024-01-15T14:56:18;0.10;99.90
54409;DHT22;40315;48.620;9.828;2024-01-15T14:58:45;0.10;99.90
54409;DHT22;40315;48.620;9.828;2024-01-15T15:01:12;0.00;99.90
54409;DHT22;40315;48.620;9.828;2024-01-15T15:03:42;0.10;99.90
54409;DHT22;40315;48.620;9.828;2024-01-15T15:06:12;0.00;99.90
54409;DHT22;40315;48.620;9.828;2024-01-15T15:08:41;0.10;99.90
54409;DHT22;40315;48.620;9.828;2024-01-15T15:11:08;0.00;99.90
54409;DHT22;40315;48.620;9.828;2024-01-15T15:13:39;-0.10;99.90
54409;DHT22;40315;48.620;9.828;2024-01-15T15:16:06;-0.20;99.90
54409;DHT22;40315;48.620;9.828;2024-01-15T15:18:33;-0.20;99.90
54409;DHT22;40315;48.620;9.828;2024-01-15T15:21:00;-0.30;99.90
54409;DHT22;40315;48.620;9.828;2024-01-15T15:23:26;-0.30;99.90
54409;DHT22;40315;48.620;9.828;2024-01-15T15:25:54;-0.50;99.90
54409;DHT22;40315;48.620;9.828;2024-01-15T15:28:20;-0.50;99.90
54409;DHT22;40315;48.620;9.828;2024-01-15T15:30:49;-0.50;99.90
54409;DHT22;40315;48.620;9.828;2024-01-15T15:33:16;-0.50;99.90
54409;DHT22;40315;48.620;9.828;2024-01-15T15:35:46;-0.50;99.90
54409;DHT22;40315;48.620;9.828;2024-01-15T15:38:16;-0.50;99.90
54409;DHT22;40315;48.620;9.828;2024-01-15T15:40:43;-0.50;99.90
54409;DHT22;40315;48.620;9.828;2024-01-15T15:43:10;-0.60;99.90
54409;DHT22;40315;48.620;9.828;2024-01-15T15:45:39;-0.60;99.90
54409;DHT22;40315;48.620;9.828;2024-01-15T15:48:07;-0.60;99.90
54409;DHT22;40315;48.620;9.828;2024-01-15T15:50:34;-0.60;99.90
54409;DHT22;40315;48.620;9.828;2024-01-15T15:53:01;-0.60;99.90
54409;DHT22;40315;48.620;9.828;2024-01-15T15:55:29;-0.60;99.90
54409;DHT22;40315;48.620;9.828;2024-01-15T15:57:55;-0.40;99.90
54409;DHT22;40315;48.620;9.828;2024-01-15T16:00:22;-0.60;99.90
54409;DHT22;40315;48.620;9.828;2024-01-15T16:05:23;-0.60;99.90
54409;DHT22;40315;48.620;9.828;2024-01-15T16:07:52;-0.60;99.90
54409;DHT22;40315;48.620;9.828;2024-01-15T16:10:19;-0.60;99.90
54409;DHT22;40315;48.620;9.828;2024-01-15T16:12:46;-0.60;99.90
54409;DHT22;40315;48.620;9.828;2024-01-15T16:15:17;-0.60;99.90
54409;DHT22;40315;48.620;9.828;2024-01-15T16:17:45;-0.50;99.90
54409;DHT22;40315;48.620;9.828;2024-01-15T16:20:13;-0.60;99.90
54409;DHT22;40315;48.620;9.828;2024-01-15T16:22:44;-0.60;99.90
54409;DHT22;40315;48.620;9.828;2024-01-15T16:25:11;-0.60;99.90
54409;DHT22;40315;48.620;9.828;2024-01-15T16:27:38;-0.60;99.90
54409;DHT22;40315;48.620;9.828;2024-01-15T16:30:08;-0.60;99.90
54409;DHT22;40315;48.620;9.828;2024-01-15T16:32:35;-0.60;99.90
54409;DHT22;40315;48.620;9.828;2024-01-15T16:35:02;-0.60;99.90
54409;DHT22;40315;48.620;9.828;2024-01-15T16:37:29;-0.60;99.90
54409;DHT22;40315;48.620;9.828;2024-01-15T16:39:59;-0.70;99.90
54409;DHT22;40315;48.620;9.828;2024-01-15T16:42:26;-0.70;99.90
54409;DHT22;40315;48.620;9.828;2024-01-15T16:44:53;-0.80;99.90
54409;DHT22;40315;48.620;9.828;2024-01-15T16:47:20;-0.80;99.90
54409;DHT22;40315;48.620;9.828;2024-01-15T16:49:47;-0.80;99.90
54409;DHT22;40315;48.620;9.828;2024-01-15T16:52:14;-0.80;99.90
54409;DHT22;40315;48.620;9.828;2024-01-15T16:54:43;-0.80;99.90
54409;DHT22;40315;48.620;9.828;2024-01-15T16:57:12;-0.80;99.90
54409;DHT22;40315;48.620;9.828;2024-01-15T16:59:39;-0.90;99.90
54409;DHT22;40315;48.620;9.828;2024-01-15T17:02:06;-0.90;99.90
54409;DHT22;40315;48.620;9.828;2024-01-15T17:04:33;-0.90;99.90
54409;DHT22;40315;48.620;9.828;2024-01-15T17:07:00;-0.80;99.90
54409;DHT22;40315;48.620;9.828;2024-01-15T17:09:27;-0.80;99.90
54409;DHT22;40315;48.620;9.828;2024-01-15T17:11:54;-0.90;99.90
54409;DHT22;40315;48.620;9.828;2024-01-15T17:14:22;-0.80;99.90
54409;DHT22;40315;48.620;9.828;2024-01-15T17:16:52;-0.80;99.90
54409;DHT22;40315;48.620;9.828;2024-01-15T17:19:21;-0.80;99.90
54409;DHT22;40315;48.620;9.828;2024-01-15T17:21:48;-0.80;99.90
54409;DHT22;40315;48.620;9.828;2024-01-15T17:24:15;-0.80;99.90
54409;DHT22;40315;48.620;9.828;2024-01-15T17:26:41;-0.80;99.90
54409;DHT22;40315;48.620;9.828;2024-01-15T17:29:08;-0.90;99.90
54409;DHT22;40315;48.620;9.828;2024-01-15T17:31:37;-0.90;99.90
54409;DHT22;40315;48.620;9.828;2024-01-15T17:34:04;-0.90;99.90
54409;DHT22;40315;48.620;9.828;2024-01-15T17:36:31;-0.90;99.90
54409;DHT22;40315;48.620;9.828;2024-01-15T17:38:58;-0.90;99.90
54409;DHT22;40315;48.620;9.828;2024-01-15T17:41:27;-1.00;99.90
54409;DHT22;40315;48.620;9.828;2024-01-15T17:43:54;-0.90;99.90
54409;DHT22;40315;48.620;9.828;2024-01-15T17:46:21;-1.00;99.90
54409;DHT22;40315;48.620;9.828;2024-01-15T17:48:51;-1.00;99.90
54409;DHT22;40315;48.620;9.828;2024-01-15T17:51:20;-0.90;99.90